sensor_id;sensor_type;location;lat;lon;timestamp;temperature;humidity
47618;DHT22;33336;36.728;-4.414;2022-07-23T00:04:33;29.80;69.30
47618;DHT22;33336;36.728;-4.414;2022-07-23T00:09:38;29.50;68.10
47618;DHT22;33336;36.728;-4.414;2022-07-23T00:14:40;29.30;68.80
47618;DHT22;33336;36.728;-4.414;2022-07-23T00:19:44;29.70;67.70
47618;DHT22;33336;36.728;-4.414;2022-07-23T00:24:48;29.40;66.40
47618;DHT22;33336;36.728;-4.414;2022-07-23T00:29:52;29.10;65.70
47618;DHT22;33336;36.728;-4.414;2022-07-23T00:34:55;29.60;66.70
47618;DHT22;33336;36.728;-4.414;2022-07-23T00:40:00;28.90;67.10
47618;DHT22;33336;36.728;-4.414;2022-07-23T00:45:03;29.20;68.00
47618;DHT22;33336;36.728;-4.414;2022-07-23T00:50:08;29.10;68.90
47618;DHT22;33336;36.728;-4.414;2022-07-23T00:55:13;29.30;69.00
47618;DHT22;33336;36.728;-4.414;2022-07-23T01:00:16;29.60;69.70
47618;DHT22;33336;36.728;-4.414;2022-07-23T01:05:19;29.50;69.50
47618;DHT22;33336;36.728;-4.414;2022-07-23T01:10:25;29.50;68.60
47618;DHT22;33336;36.728;-4.414;2022-07-23T01:15:34;29.70;68.50
47618;DHT22;33336;36.728;-4.414;2022-07-23T01:20:38;29.50;67.80
47618;DHT22;33336;36.728;-4.414;2022-07-23T01:25:49;29.50;67.70
47618;DHT22;33336;36.728;-4.414;2022-07-23T01:30:54;29.50;67.60
47618;DHT22;33336;36.728;-4.414;2022-07-23T01:35:57;29.20;67.50
47618;DHT22;33336;36.728;-4.414;2022-07-23T01:41:02;29.00;68.70
47618;DHT22;33336;36.728;-4.414;2022-07-23T01:46:04;29.20;68.70
47618;DHT22;33336;36.728;-4.414;2022-07-23T01:51:08;29.30;68.00
47618;DHT22;33336;36.728;-4.414;2022-07-23T01:56:12;29.40;68.00
47618;DHT22;33336;36.728;-4.414;2022-07-23T02:01:16;29.60;68.80
47618;DHT22;33336;36.728;-4.414;2022-07-23T02:06:19;29.50;67.90
47618;DHT22;33336;36.728;-4.414;2022-07-23T02:11:24;29.50;67.50
47618;DHT22;33336;36.728;-4.414;2022-07-23T02:16:26;29.20;67.50
47618;DHT22;33336;36.728;-4.414;2022-07-23T02:21:29;28.90;67.90
47618;DHT22;33336;36.728;-4.414;2022-07-23T02:26:33;28.90;67.90
47618;DHT22;33336;36.728;-4.414;2022-07-23T02:31:37;29.10;68.10
47618;DHT22;33336;36.728;-4.414;2022-07-23T02:36:40;29.20;68.10
47618;DHT22;33336;36.728;-4.414;2022-07-23T02:41:45;28.60;68.10
47618;DHT22;33336;36.728;-4.414;2022-07-23T02:46:47;28.90;67.80
47618;DHT22;33336;36.728;-4.414;2022-07-23T02:51:50;28.80;67.40
47618;DHT22;33336;36.728;-4.414;2022-07-23T02:56:54;29.00;67.70
47618;DHT22;33336;36.728;-4.414;2022-07-23T03:01:58;29.10;68.10
47618;DHT22;33336;36.728;-4.414;2022-07-23T03:07:01;28.80;67.90
47618;DHT22;33336;36.728;-4.414;2022-07-23T03:12:06;29.00;66.90
47618;DHT22;33336;36.728;-4.414;2022-07-23T03:17:09;29.00;67.00
47618;DHT22;33336;36.728;-4.414;2022-07-23T03:22:13;29.10;66.20
47618;DHT22;33336;36.728;-4.414;2022-07-23T03:27:17;28.70;66.70
47618;DHT22;33336;36.728;-4.414;2022-07-23T03:32:20;28.30;67.00
47618;DHT22;33336;36.728;-4.414;2022-07-23T03:37:23;27.90;67.50
47618;DHT22;33336;36.728;-4.414;2022-07-23T03:42:28;28.40;67.40
47618;DHT22;33336;36.728;-4.414;2022-07-23T03:47:30;28.70;66.00
47618;DHT22;33336;36.728;-4.414;2022-07-23T03:52:34;28.70;66.60
47618;DHT22;33336;36.728;-4.414;2022-07-23T03:57:38;28.60;66.80
47618;DHT22;33336;36.728;-4.414;2022-07-23T04:02:41;28.60;66.10
47618;DHT22;33336;36.728;-4.414;2022-07-23T04:07:44;28.70;66.40
47618;DHT22;33336;36.728;-4.414;2022-07-23T04:12:48;28.80;66.10
47618;DHT22;33336;36.728;-4.414;2022-07-23T04:17:51;28.80;66.10
47618;DHT22;33336;36.728;-4.414;2022-07-23T04:22:55;28.60;65.80
47618;DHT22;33336;36.728;-4.414;2022-07-23T04:27:59;28.80;66.40
47618;DHT22;33336;36.728;-4.414;2022-07-23T04:33:02;28.80;66.40
47618;DHT22;33336;36.728;-4.414;2022-07-23T04:38:07;28.40;66.70
47618;DHT22;33336;36.728;-4.414;2022-07-23T04:43:12;28.50;66.80
47618;DHT22;33336;36.728;-4.414;2022-07-23T04:48:15;28.50;66.80
47618;DHT22;33336;36.728;-4.414;2022-07-23T04:53:19;28.30;66.70
47618;DHT22;33336;36.728;-4.414;2022-07-23T04:58:23;28.10;67.30
47618;DHT22;33336;36.728;-4.414;2022-07-23T05:03:27;28.40;66.60
47618;DHT22;33336;36.728;-4.414;2022-07-23T05:08:30;28.50;66.40
47618;DHT22;33336;36.728;-4.414;2022-07-23T05:13:34;28.60;66.80
47618;DHT22;33336;36.728;-4.414;2022-07-23T05:18:38;28.50;66.50
47618;DHT22;33336;36.728;-4.414;2022-07-23T05:23:41;28.50;66.50
47618;DHT22;33336;36.728;-4.414;2022-07-23T05:28:45;28.50;66.40
47618;DHT22;33336;36.728;-4.414;2022-07-23T05:33:49;28.50;66.40
47618;DHT22;33336;36.728;-4.414;2022-07-23T05:38:52;28.60;65.70
47618;DHT22;33336;36.728;-4.414;2022-07-23T05:43:56;28.60;65.60
47618;DHT22;33336;36.728;-4.414;2022-07-23T05:48:59;28.50;65.30
47618;DHT22;33336;36.728;-4.414;2022-07-23T05:54:02;28.50;64.10
47618;DHT22;33336;36.728;-4.414;2022-07-23T05:59:06;28.20;64.30
47618;DHT22;33336;36.728;-4.414;2022-07-23T06:04:10;28.00;64.70
47618;DHT22;33336;36.728;-4.414;2022-07-23T06:09:13;28.10;64.20
47618;DHT22;33336;36.728;-4.414;2022-07-23T06:14:17;28.40;64.30
47618;DHT22;33336;36.728;-4.414;2022-07-23T06:19:20;28.70;64.90
47618;DHT22;33336;36.728;-4.414;2022-07-23T06:24:23;28.90;64.80
47618;DHT22;33336;36.728;-4.414;2022-07-23T06:29:27;29.00;64.50
47618;DHT22;33336;36.728;-4.414;2022-07-23T06:34:30;29.10;64.40
47618;DHT22;33336;36.728;-4.414;2022-07-23T06:39:33;29.00;64.80
47618;DHT22;33336;36.728;-4.414;2022-07-23T06:44:38;29.20;64.60
47618;DHT22;33336;36.728;-4.414;2022-07-23T06:49:40;29.30;65.40
47618;DHT22;33336;36.728;-4.414;2022-07-23T06:54:44;29.40;65.60
47618;DHT22;33336;36.728;-4.414;2022-07-23T06:59:48;29.50;65.30
47618;DHT22;33336;36.728;-4.414;2022-07-23T07:04:52;29.40;65.50
47618;DHT22;33336;36.728;-4.414;2022-07-23T07:09:57;29.60;65.30
47618;DHT22;33336;36.728;-4.414;2022-07-23T07:15:01;29.70;64.60
47618;DHT22;33336;36.728;-4.414;2022-07-23T07:20:06;29.30;66.00
47618;DHT22;33336;36.728;-4.414;2022-07-23T07:25:09;29.80;66.80
47618;DHT22;33336;36.728;-4.414;2022-07-23T07:30:13;29.90;66.90
47618;DHT22;33336;36.728;-4.414;2022-07-23T07:35:16;29.80;67.00
47618;DHT22;33336;36.728;-4.414;2022-07-23T07:40:19;29.60;67.40
47618;DHT22;33336;36.728;-4.414;2022-07-23T07:45:25;30.10;66.50
47618;DHT22;33336;36.728;-4.414;2022-07-23T07:50:28;29.90;66.50
47618;DHT22;33336;36.728;-4.414;2022-07-23T07:55:31;29.70;66.70
47618;DHT22;33336;36.728;-4.414;2022-07-23T08:00:35;30.30;66.60
47618;DHT22;33336;36.728;-4.414;2022-07-23T08:05:39;30.30;66.30
47618;DHT22;33336;36.728;-4.414;2022-07-23T08:10:42;30.30;67.20
47618;DHT22;33336;36.728;-4.414;2022-07-23T08:15:46;29.90;68.10
47618;DHT22;33336;36.728;-4.414;2022-07-23T08:20:49;29.20;71.90
47618;DHT22;33336;36.728;-4.414;2022-07-23T08:25:53;28.50;77.50
47618;DHT22;33336;36.728;-4.414;2022-07-23T08:30:59;28.20;82.50
47618;DHT22;33336;36.728;-4.414;2022-07-23T08:36:04;28.50;81.40
47618;DHT22;33336;36.728;-4.414;2022-07-23T08:41:07;28.40;82.80
47618;DHT22;33336;36.728;-4.414;2022-07-23T08:46:13;28.20;82.50
47618;DHT22;33336;36.728;-4.414;2022-07-23T08:51:16;28.20;81.70
47618;DHT22;33336;36.728;-4.414;2022-07-23T08:56:23;28.60;80.50
47618;DHT22;33336;36.728;-4.414;2022-07-23T09:01:27;29.50;79.20
47618;DHT22;33336;36.728;-4.414;2022-07-23T09:06:31;29.30;79.60
47618;DHT22;33336;36.728;-4.414;2022-07-23T09:11:34;29.80;80.20
47618;DHT22;33336;36.728;-4.414;2022-07-23T09:16:38;29.70;79.70
47618;DHT22;33336;36.728;-4.414;2022-07-23T09:21:41;29.50;79.20
47618;DHT22;33336;36.728;-4.414;2022-07-23T09:26:46;30.10;77.10
47618;DHT22;33336;36.728;-4.414;2022-07-23T09:31:53;30.30;76.80
47618;DHT22;33336;36.728;-4.414;2022-07-23T09:36:58;30.30;75.20
47618;DHT22;33336;36.728;-4.414;2022-07-23T09:42:14;30.80;73.70
47618;DHT22;33336;36.728;-4.414;2022-07-23T09:47:20;31.20;71.90
47618;DHT22;33336;36.728;-4.414;2022-07-23T09:52:26;30.40;71.60
47618;DHT22;33336;36.728;-4.414;2022-07-23T09:57:31;29.60;74.00
47618;DHT22;33336;36.728;-4.414;2022-07-23T10:02:37;29.80;72.70
47618;DHT22;33336;36.728;-4.414;2022-07-23T10:07:40;30.00;72.00
47618;DHT22;33336;36.728;-4.414;2022-07-23T10:12:44;30.60;69.40
47618;DHT22;33336;36.728;-4.414;2022-07-23T10:18:05;31.10;69.80
47618;DHT22;33336;36.728;-4.414;2022-07-23T10:23:14;30.90;67.90
47618;DHT22;33336;36.728;-4.414;2022-07-23T10:28:42;31.30;67.50
47618;DHT22;33336;36.728;-4.414;2022-07-23T10:33:57;31.10;66.70
47618;DHT22;33336;36.728;-4.414;2022-07-23T10:39:07;31.60;67.20
47618;DHT22;33336;36.728;-4.414;2022-07-23T10:44:12;31.40;68.00
47618;DHT22;33336;36.728;-4.414;2022-07-23T10:49:30;31.60;67.50
47618;DHT22;33336;36.728;-4.414;2022-07-23T10:54:34;31.80;68.50
47618;DHT22;33336;36.728;-4.414;2022-07-23T11:05:20;32.00;68.60
47618;DHT22;33336;36.728;-4.414;2022-07-23T11:10:41;32.20;68.20
47618;DHT22;33336;36.728;-4.414;2022-07-23T11:16:12;32.50;67.40
47618;DHT22;33336;36.728;-4.414;2022-07-23T11:21:50;32.00;68.80
47618;DHT22;33336;36.728;-4.414;2022-07-23T11:27:00;32.10;71.40
47618;DHT22;33336;36.728;-4.414;2022-07-23T11:32:05;32.30;72.00
47618;DHT22;33336;36.728;-4.414;2022-07-23T11:37:11;33.00;70.40
47618;DHT22;33336;36.728;-4.414;2022-07-23T11:42:18;33.70;69.40
47618;DHT22;33336;36.728;-4.414;2022-07-23T11:47:23;33.30;70.00
47618;DHT22;33336;36.728;-4.414;2022-07-23T11:52:28;33.10;70.50
47618;DHT22;33336;36.728;-4.414;2022-07-23T11:57:32;33.90;68.80
47618;DHT22;33336;36.728;-4.414;2022-07-23T12:02:36;32.20;69.50
47618;DHT22;33336;36.728;-4.414;2022-07-23T12:07:41;32.40;73.80
47618;DHT22;33336;36.728;-4.414;2022-07-23T12:12:47;33.50;71.40
47618;DHT22;33336;36.728;-4.414;2022-07-23T12:17:52;32.40;72.60
47618;DHT22;33336;36.728;-4.414;2022-07-23T12:22:59;33.30;71.60
47618;DHT22;33336;36.728;-4.414;2022-07-23T12:28:04;33.80;72.50
47618;DHT22;33336;36.728;-4.414;2022-07-23T12:33:11;32.40;76.40
47618;DHT22;33336;36.728;-4.414;2022-07-23T12:38:18;32.30;78.60
47618;DHT22;33336;36.728;-4.414;2022-07-23T12:43:23;32.90;78.80
47618;DHT22;33336;36.728;-4.414;2022-07-23T12:48:28;32.60;74.00
47618;DHT22;33336;36.728;-4.414;2022-07-23T12:53:41;33.50;78.00
47618;DHT22;33336;36.728;-4.414;2022-07-23T12:58:46;33.70;77.60
47618;DHT22;33336;36.728;-4.414;2022-07-23T13:04:00;33.30;75.80
47618;DHT22;33336;36.728;-4.414;2022-07-23T13:09:06;34.50;75.80
47618;DHT22;33336;36.728;-4.414;2022-07-23T13:14:10;34.10;73.60
47618;DHT22;33336;36.728;-4.414;2022-07-23T13:19:13;34.30;73.70
47618;DHT22;33336;36.728;-4.414;2022-07-23T13:24:18;34.10;72.10
47618;DHT22;33336;36.728;-4.414;2022-07-23T13:29:21;33.70;72.90
47618;DHT22;33336;36.728;-4.414;2022-07-23T13:34:25;33.80;73.10
47618;DHT22;33336;36.728;-4.414;2022-07-23T13:39:29;34.00;73.50
47618;DHT22;33336;36.728;-4.414;2022-07-23T13:44:33;34.00;73.00
47618;DHT22;33336;36.728;-4.414;2022-07-23T13:49:36;33.60;72.30
47618;DHT22;33336;36.728;-4.414;2022-07-23T13:54:40;33.80;74.40
47618;DHT22;33336;36.728;-4.414;2022-07-23T13:59:43;34.60;70.10
47618;DHT22;33336;36.728;-4.414;2022-07-23T14:04:47;34.70;72.20
47618;DHT22;33336;36.728;-4.414;2022-07-23T14:09:51;34.60;71.40
47618;DHT22;33336;36.728;-4.414;2022-07-23T14:14:55;35.70;68.50
47618;DHT22;33336;36.728;-4.414;2022-07-23T14:19:58;35.40;69.60
47618;DHT22;33336;36.728;-4.414;2022-07-23T14:25:05;34.90;68.60
47618;DHT22;33336;36.728;-4.414;2022-07-23T14:30:09;35.70;68.70
47618;DHT22;33336;36.728;-4.414;2022-07-23T14:35:12;35.50;68.10
47618;DHT22;33336;36.728;-4.414;2022-07-23T14:40:16;36.30;68.30
47618;DHT22;33336;36.728;-4.414;2022-07-23T14:45:20;36.30;70.30
47618;DHT22;33336;36.728;-4.414;2022-07-23T14:50:23;36.30;68.40
47618;DHT22;33336;36.728;-4.414;2022-07-23T14:55:27;36.70;67.30
47618;DHT22;33336;36.728;-4.414;2022-07-23T15:00:30;35.20;67.70
47618;DHT22;33336;36.728;-4.414;2022-07-23T15:05:34;36.60;67.70
47618;DHT22;33336;36.728;-4.414;2022-07-23T15:10:38;36.70;69.10
47618;DHT22;33336;36.728;-4.414;2022-07-23T15:15:42;37.60;66.80
47618;DHT22;33336;36.728;-4.414;2022-07-23T15:20:45;37.60;66.90
47618;DHT22;33336;36.728;-4.414;2022-07-23T15:25:49;37.30;68.60
47618;DHT22;33336;36.728;-4.414;2022-07-23T15:30:52;38.30;68.20
47618;DHT22;33336;36.728;-4.414;2022-07-23T15:35:56;35.80;72.10
47618;DHT22;33336;36.728;-4.414;2022-07-23T15:41:01;35.50;75.00
47618;DHT22;33336;36.728;-4.414;2022-07-23T15:46:05;36.40;74.50
47618;DHT22;33336;36.728;-4.414;2022-07-23T15:51:08;37.30;73.20
47618;DHT22;33336;36.728;-4.414;2022-07-23T15:56:12;38.40;70.60
47618;DHT22;33336;36.728;-4.414;2022-07-23T16:01:15;37.00;73.70
47618;DHT22;33336;36.728;-4.414;2022-07-23T16:06:19;36.40;74.40
47618;DHT22;33336;36.728;-4.414;2022-07-23T16:11:23;37.00;72.20
47618;DHT22;33336;36.728;-4.414;2022-07-23T16:16:27;37.70;71.60
47618;DHT22;33336;36.728;-4.414;2022-07-23T16:21:30;37.30;73.60
47618;DHT22;33336;36.728;-4.414;2022-07-23T16:26:34;37.70;74.20
47618;DHT22;33336;36.728;-4.414;2022-07-23T16:31:37;38.40;73.30
47618;DHT22;33336;36.728;-4.414;2022-07-23T16:36:41;36.90;76.20
47618;DHT22;33336;36.728;-4.414;2022-07-23T16:41:45;36.30;78.40
47618;DHT22;33336;36.728;-4.414;2022-07-23T16:46:49;36.30;78.20
47618;DHT22;33336;36.728;-4.414;2022-07-23T16:51:52;36.10;78.70
47618;DHT22;33336;36.728;-4.414;2022-07-23T16:56:57;35.80;78.70
47618;DHT22;33336;36.728;-4.414;2022-07-23T17:02:00;35.70;79.10
47618;DHT22;33336;36.728;-4.414;2022-07-23T17:07:04;35.20;79.40
47618;DHT22;33336;36.728;-4.414;2022-07-23T17:12:08;35.00;80.30
47618;DHT22;33336;36.728;-4.414;2022-07-23T17:17:12;36.30;78.10
47618;DHT22;33336;36.728;-4.414;2022-07-23T17:22:15;35.80;77.90
47618;DHT22;33336;36.728;-4.414;2022-07-23T17:27:19;35.80;79.00
47618;DHT22;33336;36.728;-4.414;2022-07-23T17:32:22;35.90;78.20
47618;DHT22;33336;36.728;-4.414;2022-07-23T17:37:26;35.90;78.80
47618;DHT22;33336;36.728;-4.414;2022-07-23T17:42:30;34.90;80.60
47618;DHT22;33336;36.728;-4.414;2022-07-23T17:47:35;34.90;81.70
47618;DHT22;33336;36.728;-4.414;2022-07-23T17:52:44;34.80;82.50
47618;DHT22;33336;36.728;-4.414;2022-07-23T17:57:48;34.30;83.10
47618;DHT22;33336;36.728;-4.414;2022-07-23T18:02:52;34.20;83.40
47618;DHT22;33336;36.728;-4.414;2022-07-23T18:07:55;34.10;83.70
47618;DHT22;33336;36.728;-4.414;2022-07-23T18:12:59;34.70;82.40
47618;DHT22;33336;36.728;-4.414;2022-07-23T18:18:03;35.00;82.20
47618;DHT22;33336;36.728;-4.414;2022-07-23T18:23:07;35.00;82.60
47618;DHT22;33336;36.728;-4.414;2022-07-23T18:28:11;35.40;81.70
47618;DHT22;33336;36.728;-4.414;2022-07-23T18:33:15;35.90;80.70
47618;DHT22;33336;36.728;-4.414;2022-07-23T18:38:18;35.40;81.50
47618;DHT22;33336;36.728;-4.414;2022-07-23T18:43:22;34.70;84.20
47618;DHT22;33336;36.728;-4.414;2022-07-23T18:48:25;34.40;83.90
47618;DHT22;33336;36.728;-4.414;2022-07-23T18:53:29;34.20;84.30
47618;DHT22;33336;36.728;-4.414;2022-07-23T18:58:33;33.70;85.30
47618;DHT22;33336;36.728;-4.414;2022-07-23T19:03:37;34.30;84.00
47618;DHT22;33336;36.728;-4.414;2022-07-23T19:08:40;35.40;82.30
47618;DHT22;33336;36.728;-4.414;2022-07-23T19:13:44;35.00;82.70
47618;DHT22;33336;36.728;-4.414;2022-07-23T19:18:47;34.70;83.30
47618;DHT22;33336;36.728;-4.414;2022-07-23T19:23:50;34.50;83.70
47618;DHT22;33336;36.728;-4.414;2022-07-23T19:28:56;32.90;87.30
47618;DHT22;33336;36.728;-4.414;2022-07-23T19:34:00;32.50;89.00
47618;DHT22;33336;36.728;-4.414;2022-07-23T19:39:03;32.40;89.30
47618;DHT22;33336;36.728;-4.414;2022-07-23T19:44:08;32.80;87.70
47618;DHT22;33336;36.728;-4.414;2022-07-23T19:49:11;33.00;87.10
47618;DHT22;33336;36.728;-4.414;2022-07-23T19:54:14;32.70;87.00
47618;DHT22;33336;36.728;-4.414;2022-07-23T19:59:19;32.40;88.40
47618;DHT22;33336;36.728;-4.414;2022-07-23T20:04:22;32.60;87.00
47618;DHT22;33336;36.728;-4.414;2022-07-23T20:09:25;32.80;86.70
47618;DHT22;33336;36.728;-4.414;2022-07-23T20:14:29;32.60;87.30
47618;DHT22;33336;36.728;-4.414;2022-07-23T20:19:32;32.50;87.40
47618;DHT22;33336;36.728;-4.414;2022-07-23T20:24:36;32.70;86.80
47618;DHT22;33336;36.728;-4.414;2022-07-23T20:29:40;32.50;86.50
47618;DHT22;33336;36.728;-4.414;2022-07-23T20:34:44;32.50;85.50
47618;DHT22;33336;36.728;-4.414;2022-07-23T20:39:46;32.40;84.50
47618;DHT22;33336;36.728;-4.414;2022-07-23T20:44:51;32.30;82.50
47618;DHT22;33336;36.728;-4.414;2022-07-23T20:49:54;32.20;83.90
47618;DHT22;33336;36.728;-4.414;2022-07-23T20:54:58;32.30;81.90
47618;DHT22;33336;36.728;-4.414;2022-07-23T21:00:05;31.90;80.20
47618;DHT22;33336;36.728;-4.414;2022-07-23T21:05:09;32.10;80.40
47618;DHT22;33336;36.728;-4.414;2022-07-23T21:10:12;32.00;79.70
47618;DHT22;33336;36.728;-4.414;2022-07-23T21:15:17;31.90;78.80
47618;DHT22;33336;36.728;-4.414;2022-07-23T21:20:20;31.60;79.00
47618;DHT22;33336;36.728;-4.414;2022-07-23T21:25:24;31.60;79.20
47618;DHT22;33336;36.728;-4.414;2022-07-23T21:30:28;31.50;79.30
47618;DHT22;33336;36.728;-4.414;2022-07-23T21:35:32;31.30;79.70
47618;DHT22;33336;36.728;-4.414;2022-07-23T21:40:35;31.30;80.00
47618;DHT22;33336;36.728;-4.414;2022-07-23T21:45:39;31.30;80.30
47618;DHT22;33336;36.728;-4.414;2022-07-23T21:50:42;31.30;80.10
47618;DHT22;33336;36.728;-4.414;2022-07-23T21:55:46;31.70;79.70
47618;DHT22;33336;36.728;-4.414;2022-07-23T22:00:50;31.70;79.60
47618;DHT22;33336;36.728;-4.414;2022-07-23T22:05:56;31.70;79.20
47618;DHT22;33336;36.728;-4.414;2022-07-23T22:10:58;31.70;79.50
47618;DHT22;33336;36.728;-4.414;2022-07-23T22:16:03;31.30;79.50
47618;DHT22;33336;36.728;-4.414;2022-07-23T22:21:06;30.60;81.80
47618;DHT22;33336;36.728;-4.414;2022-07-23T22:26:10;31.20;80.50
47618;DHT22;33336;36.728;-4.414;2022-07-23T22:31:14;31.40;79.70
47618;DHT22;33336;36.728;-4.414;2022-07-23T22:36:18;30.10;82.00
47618;DHT22;33336;36.728;-4.414;2022-07-23T22:41:21;30.70;80.00
47618;DHT22;33336;36.728;-4.414;2022-07-23T22:46:25;31.10;78.70
47618;DHT22;33336;36.728;-4.414;2022-07-23T22:51:28;31.20;77.70
47618;DHT22;33336;36.728;-4.414;2022-07-23T22:56:32;31.20;77.10
47618;DHT22;33336;36.728;-4.414;2022-07-23T23:01:36;30.90;77.80
47618;DHT22;33336;36.728;-4.414;2022-07-23T23:06:41;30.70;77.90
47618;DHT22;33336;36.728;-4.414;2022-07-23T23:11:44;30.40;77.10
47618;DHT22;33336;36.728;-4.414;2022-07-23T23:16:54;30.80;77.00
47618;DHT22;33336;36.728;-4.414;2022-07-23T23:21:56;30.70;76.50
47618;DHT22;33336;36.728;-4.414;2022-07-23T23:27:01;30.70;76.40
47618;DHT22;33336;36.728;-4.414;2022-07-23T23:32:05;30.70;76.10
47618;DHT22;33336;36.728;-4.414;2022-07-23T23:37:08;30.70;76.30
47618;DHT22;33336;36.728;-4.414;2022-07-23T23:42:11;30.70;76.20
47618;DHT22;33336;36.728;-4.414;2022-07-23T23:47:16;30.60;76.40
47618;DHT22;33336;36.728;-4.414;2022-07-23T23:52:19;30.60;76.50
47618;DHT22;33336;36.728;-4.414;2022-07-23T23:57:23;30.70;75.70
